KRFD

Chicago / Rockford International Airport

Chicago/Rockford, Illinois, USA
METAR KRFD 230954Z 30004KT 10SM CLR 04/M03 A3021 RMK AO2 SLP234 T00391033
Observed Flight Rules
Oct-23 @ 09:54 UTC (18 minutes ago) Visual Flight Rules
Wind Visibility Clouds
300° at 4 knots 10 miles
  • Clear skies
Temperatures Readings
Current 4°C / 39°F
Dewpoint -3°C / 27°F
Humidity 61%
Altimeter 30.21" Hg
Pressure 1023.4 hPa
Elevation 221
METAR KRFD 230954Z 30004KT 10SM CLR 04/M03 A3021 RMK AO2 SLP234 T00391033
Observed Flight Rules
Oct-23 @ 09:54 UTC
(18 minutes ago)
VFR
Wind Visibility
300° at 4 knots 10 miles
Clouds
  • Clear skies
Temperature Dewpoint
4°C / 39°F -3°C / 27°F
Humidity Altimeter Pressure
61% 30.21" Hg 1023.4 hPa